createdAt,value
2023-01-13T00:01:00.333Z,10.14
2023-01-13T00:03:26.877Z,10.13
2023-01-13T00:05:53.453Z,10.18
2023-01-13T00:08:19.978Z,10.15
2023-01-13T00:10:48.477Z,10.13
2023-01-13T00:13:15.018Z,10.08
2023-01-13T00:15:41.638Z,10.10
2023-01-13T00:18:08.279Z,10.17
2023-01-13T00:20:35.030Z,10.03
2023-01-13T00:23:01.595Z,9.98
2023-01-13T00:25:28.119Z,10.06
2023-01-13T00:27:54.662Z,10.01
2023-01-13T00:30:21.268Z,10.03
2023-01-13T00:32:47.806Z,10.01
2023-01-13T00:35:14.362Z,9.95
2023-01-13T00:37:41.248Z,9.86
2023-01-13T00:40:08.585Z,9.95
2023-01-13T00:42:53.910Z,9.97
2023-01-13T00:45:20.507Z,9.76
2023-01-13T00:47:47.054Z,9.70
2023-01-13T00:50:13.591Z,9.63
2023-01-13T00:52:42.269Z,9.48
2023-01-13T00:55:09.169Z,9.55
2023-01-13T00:57:35.749Z,9.52
2023-01-13T01:00:02.600Z,9.44
2023-01-13T01:02:29.182Z,9.45
2023-01-13T01:04:55.771Z,9.43
2023-01-13T01:07:22.508Z,9.46
2023-01-13T01:09:49.764Z,9.50
2023-01-13T01:12:16.327Z,9.44
2023-01-13T01:14:42.860Z,9.46
2023-01-13T01:17:09.488Z,9.37
2023-01-13T01:19:38.824Z,9.33
2023-01-13T01:22:05.393Z,9.41
2023-01-13T01:24:31.945Z,9.32
2023-01-13T01:26:58.496Z,9.39
2023-01-13T01:29:25.064Z,9.37
2023-01-13T01:31:51.655Z,9.37
2023-01-13T01:34:18.253Z,9.43
2023-01-13T01:36:44.804Z,9.43
2023-01-13T01:39:11.564Z,9.47
2023-01-13T01:41:38.254Z,9.52
2023-01-13T01:44:27.634Z,9.50
2023-01-13T01:46:55.821Z,9.60
2023-01-13T01:49:33.796Z,9.58
2023-01-13T01:52:06.589Z,9.54
2023-01-13T01:54:54.719Z,9.60
2023-01-13T01:57:27.261Z,9.62
2023-01-13T01:59:54.101Z,9.70
2023-01-13T02:02:20.821Z,9.62
2023-01-13T02:04:51.804Z,9.59
2023-01-13T02:07:22.720Z,9.60
2023-01-13T02:09:49.843Z,9.66
2023-01-13T02:12:35.213Z,9.68
2023-01-13T02:15:09.200Z,9.67
2023-01-13T02:17:53.291Z,9.70
2023-01-13T02:20:38.487Z,9.71
2023-01-13T02:23:44.843Z,9.69
2023-01-13T02:26:57.516Z,9.87
2023-01-13T02:29:55.328Z,9.87
2023-01-13T02:32:29.979Z,9.85
2023-01-13T02:35:12.514Z,9.83
2023-01-13T02:37:42.289Z,9.82
2023-01-13T02:40:17.592Z,9.86
2023-01-13T02:43:20.420Z,9.83
2023-01-13T02:45:58.917Z,9.93
2023-01-13T02:48:29.662Z,9.93
2023-01-13T02:51:02.593Z,9.96
2023-01-13T02:53:34.717Z,9.91
2023-01-13T02:56:04.897Z,9.91
2023-01-13T02:58:33.266Z,9.95
2023-01-13T03:00:59.702Z,9.89
2023-01-13T03:03:26.190Z,9.86
2023-01-13T03:06:00.565Z,9.93
2023-01-13T03:08:39.628Z,10.11
2023-01-13T03:11:09.094Z,10.05
2023-01-13T03:14:02.694Z,9.99
2023-01-13T03:16:40.723Z,9.98
2023-01-13T03:19:30.860Z,9.97
2023-01-13T03:22:11.914Z,10.01
2023-01-13T03:24:50.113Z,10.11
2023-01-13T03:27:34.262Z,10.10
2023-01-13T03:30:16.420Z,10.08
2023-01-13T03:32:46.696Z,10.10
2023-01-13T03:35:23.136Z,10.10
2023-01-13T03:38:00.303Z,10.09
2023-01-13T03:40:32.634Z,10.03
2023-01-13T03:43:42.914Z,10.11
2023-01-13T03:46:18.388Z,10.11
2023-01-13T03:48:46.268Z,10.15
2023-01-13T03:51:17.915Z,10.15
2023-01-13T03:53:50.846Z,10.20
2023-01-13T03:56:40.259Z,10.12
2023-01-13T03:59:11.607Z,10.08
2023-01-13T04:01:53.134Z,10.07
2023-01-13T04:04:28.932Z,10.13
2023-01-13T04:06:58.082Z,10.14
2023-01-13T04:09:36.663Z,10.09
2023-01-13T04:12:15.225Z,10.08
2023-01-13T04:14:42.779Z,10.08
2023-01-13T04:17:09.480Z,10.19
2023-01-13T04:19:35.918Z,10.24
2023-01-13T04:22:02.300Z,10.16
2023-01-13T04:24:28.725Z,10.15
2023-01-13T04:26:56.485Z,10.21
2023-01-13T04:29:23.166Z,10.19
2023-01-13T04:31:49.642Z,10.17
2023-01-13T04:34:16.288Z,10.34
2023-01-13T04:36:43.727Z,10.28
2023-01-13T04:39:10.102Z,10.33
2023-01-13T04:41:55.118Z,10.16
2023-01-13T04:44:21.485Z,10.14
2023-01-13T04:46:47.843Z,10.13
2023-01-13T04:49:14.345Z,10.23
2023-01-13T04:51:40.713Z,10.20
2023-01-13T04:54:07.151Z,10.25
2023-01-13T04:56:33.538Z,10.22
2023-01-13T04:58:59.933Z,10.18
2023-01-13T05:01:26.406Z,10.12
2023-01-13T05:03:52.876Z,10.14
2023-01-13T05:06:19.399Z,10.11
2023-01-13T05:08:45.784Z,10.17
2023-01-13T05:11:30.868Z,10.16
2023-01-13T05:14:15.734Z,10.18
2023-01-13T05:17:00.171Z,10.27
2023-01-13T05:19:28.435Z,10.29
2023-01-13T05:22:13.367Z,10.28
2023-01-13T05:24:59.263Z,10.41
2023-01-13T05:27:26.046Z,10.25
2023-01-13T05:29:52.747Z,10.29
2023-01-13T05:32:19.129Z,10.20
2023-01-13T05:34:45.483Z,10.30
2023-01-13T05:37:13.220Z,10.36
2023-01-13T05:39:58.728Z,10.28
2023-01-13T05:42:43.672Z,10.27
2023-01-13T05:45:11.437Z,10.32
2023-01-13T05:47:37.863Z,10.32
2023-01-13T05:50:04.648Z,10.26
2023-01-13T05:52:31.033Z,10.20
2023-01-13T05:54:57.491Z,10.29
2023-01-13T05:57:23.872Z,10.30
2023-01-13T05:59:50.342Z,10.35
2023-01-13T06:02:16.691Z,10.29
2023-01-13T06:04:43.176Z,10.23
2023-01-13T06:07:09.574Z,10.36
2023-01-13T06:09:35.993Z,10.34
2023-01-13T06:12:02.350Z,10.24
2023-01-13T06:14:39.937Z,10.36
2023-01-13T06:17:10.931Z,10.28
2023-01-13T06:19:37.712Z,10.29
2023-01-13T06:22:25.227Z,10.34
2023-01-13T06:24:54.052Z,10.41
2023-01-13T06:27:22.488Z,10.25
2023-01-13T06:29:49.575Z,10.22
2023-01-13T06:32:19.637Z,10.28
2023-01-13T06:34:50.166Z,10.20
2023-01-13T06:37:19.941Z,10.35
2023-01-13T06:39:46.518Z,10.32
2023-01-13T06:42:31.536Z,10.24
2023-01-13T06:44:57.965Z,10.27
2023-01-13T06:47:24.483Z,10.25
2023-01-13T06:49:50.915Z,10.26
2023-01-13T06:52:17.309Z,10.24
2023-01-13T06:54:43.746Z,10.33
2023-01-13T06:57:10.335Z,10.22
2023-01-13T06:59:36.734Z,10.31
2023-01-13T07:02:03.347Z,10.29
2023-01-13T07:04:29.879Z,10.30
2023-01-13T07:06:56.277Z,10.29
2023-01-13T07:09:22.806Z,10.31
2023-01-13T07:11:49.236Z,10.27
2023-01-13T07:14:34.431Z,10.23
2023-01-13T07:17:00.891Z,10.27
2023-01-13T07:19:27.296Z,10.24
2023-01-13T07:21:53.718Z,10.22
2023-01-13T07:24:20.579Z,10.28
2023-01-13T07:26:46.953Z,10.35
2023-01-13T07:29:13.887Z,10.26
2023-01-13T07:31:40.409Z,10.29
2023-01-13T07:34:07.385Z,10.26
2023-01-13T07:36:34.141Z,10.28
2023-01-13T07:39:00.786Z,10.37
2023-01-13T07:41:46.034Z,10.35
2023-01-13T07:44:12.516Z,10.36
2023-01-13T07:46:39.435Z,10.26
2023-01-13T07:49:08.266Z,10.29
2023-01-13T07:51:39.125Z,10.34
2023-01-13T07:54:06.145Z,10.34
2023-01-13T07:56:33.179Z,10.47
2023-01-13T07:59:00.775Z,10.46
2023-01-13T08:01:28.064Z,10.37
2023-01-13T08:03:56.185Z,10.37
2023-01-13T08:06:22.935Z,10.46
2023-01-13T08:08:49.377Z,10.47
2023-01-13T08:11:15.846Z,10.48
2023-01-13T08:13:42.240Z,10.52
2023-01-13T08:16:11.599Z,10.43
2023-01-13T08:18:38.717Z,10.48
2023-01-13T08:21:13.678Z,10.53
2023-01-13T08:23:41.826Z,10.43
2023-01-13T08:26:14.503Z,10.45
2023-01-13T08:28:41.042Z,10.40
2023-01-13T08:31:10.628Z,10.42
2023-01-13T08:33:37.643Z,10.55
2023-01-13T08:36:06.085Z,10.48
2023-01-13T08:38:33.140Z,10.50
2023-01-13T08:40:59.519Z,10.50
2023-01-13T08:43:26.051Z,10.45
2023-01-13T08:45:57.570Z,10.53
2023-01-13T08:48:24.137Z,10.53
2023-01-13T08:50:50.812Z,10.65
2023-01-13T08:53:17.222Z,10.61
2023-01-13T08:55:43.822Z,10.61
2023-01-13T08:58:15.589Z,10.63
2023-01-13T09:00:43.819Z,10.64
2023-01-13T09:03:10.460Z,10.72
2023-01-13T09:05:36.976Z,10.76
2023-01-13T09:08:03.719Z,10.82
2023-01-13T09:10:30.288Z,10.89
2023-01-13T09:13:11.927Z,10.81
2023-01-13T09:15:40.168Z,10.84
2023-01-13T09:18:06.678Z,10.95
2023-01-13T09:20:33.366Z,10.88
2023-01-13T09:22:59.937Z,10.88
2023-01-13T09:25:26.333Z,10.84
2023-01-13T09:27:52.694Z,9.42
2023-01-13T09:30:19.066Z,8.78
2023-01-13T09:32:45.469Z,8.50
2023-01-13T09:35:11.919Z,8.20
2023-01-13T09:37:40.638Z,7.97
2023-01-13T09:40:18.442Z,7.94
2023-01-13T09:43:20.000Z,7.85
2023-01-13T09:46:41.550Z,7.86
2023-01-13T09:49:20.821Z,7.76
2023-01-13T09:51:55.891Z,7.75
2023-01-13T09:54:32.279Z,7.78
2023-01-13T09:56:59.333Z,7.82
2023-01-13T09:59:34.574Z,7.98
2023-01-13T10:02:22.570Z,7.96
2023-01-13T10:05:21.936Z,8.05
2023-01-13T10:07:55.621Z,8.15
2023-01-13T10:10:34.836Z,8.13
2023-01-13T10:13:17.201Z,8.12
2023-01-13T10:15:52.661Z,8.16
2023-01-13T10:18:28.109Z,8.21
2023-01-13T10:21:08.311Z,8.27
2023-01-13T10:24:07.988Z,8.24
2023-01-13T10:27:00.320Z,8.21
2023-01-13T10:29:28.726Z,8.26
2023-01-13T10:31:56.718Z,8.25
2023-01-13T10:34:25.121Z,8.29
2023-01-13T10:37:11.259Z,8.21
2023-01-13T10:39:43.026Z,8.23
2023-01-13T10:42:15.280Z,8.30
2023-01-13T10:44:56.683Z,8.44
2023-01-13T10:47:35.878Z,8.38
2023-01-13T10:50:05.647Z,8.38
2023-01-13T10:52:37.822Z,8.32
2023-01-13T10:55:23.991Z,8.34
2023-01-13T10:57:50.529Z,8.47
2023-01-13T11:00:32.931Z,8.53
2023-01-13T11:03:27.928Z,8.52
2023-01-13T11:05:57.457Z,8.61
2023-01-13T11:08:25.732Z,8.61
2023-01-13T11:10:53.505Z,8.64
2023-01-13T11:13:31.205Z,8.63
2023-01-13T11:16:10.910Z,8.60
2023-01-13T11:19:02.777Z,8.49
2023-01-13T11:21:46.288Z,8.49
2023-01-13T11:24:20.659Z,8.49
2023-01-13T11:26:59.035Z,8.61
2023-01-13T11:30:00.161Z,8.61
2023-01-13T11:32:30.977Z,8.50
2023-01-13T11:35:03.092Z,8.59
2023-01-13T11:37:32.877Z,8.57
2023-01-13T11:40:18.571Z,8.73
2023-01-13T11:43:10.268Z,8.81
2023-01-13T11:45:42.766Z,8.85
2023-01-13T11:48:15.139Z,8.70
2023-01-13T11:50:51.091Z,8.60
2023-01-13T11:53:45.524Z,8.68
2023-01-13T11:56:43.935Z,8.78
2023-01-13T11:59:48.032Z,8.65
2023-01-13T12:02:28.852Z,8.74
2023-01-13T12:05:29.289Z,8.71
2023-01-13T12:08:02.796Z,8.81
2023-01-13T12:10:57.063Z,8.72
2023-01-13T12:13:29.646Z,8.84
2023-01-13T12:16:11.270Z,8.81
2023-01-13T12:19:01.857Z,8.79
2023-01-13T12:21:33.988Z,8.81
2023-01-13T12:24:18.276Z,8.73
2023-01-13T12:27:01.768Z,8.81
2023-01-13T12:29:37.500Z,8.89
2023-01-13T12:32:05.996Z,8.83
2023-01-13T12:34:53.942Z,8.86
2023-01-13T12:37:31.777Z,8.86
2023-01-13T12:40:18.774Z,8.86
2023-01-13T12:43:17.786Z,8.95
2023-01-13T12:45:44.453Z,8.87
2023-01-13T12:48:45.589Z,8.82
2023-01-13T12:51:26.032Z,8.80
2023-01-13T12:53:54.559Z,8.89
2023-01-13T12:56:35.410Z,8.87
2023-01-13T12:59:32.466Z,8.88
2023-01-13T13:02:10.994Z,9.00
2023-01-13T13:04:57.254Z,8.90
2023-01-13T13:07:45.348Z,8.85
2023-01-13T13:10:18.423Z,8.95
2023-01-13T13:13:03.151Z,8.82
2023-01-13T13:15:33.885Z,8.83
2023-01-13T13:18:27.404Z,8.82
2023-01-13T13:21:11.249Z,8.80
2023-01-13T13:23:51.211Z,8.84
2023-01-13T13:26:25.021Z,8.80
2023-01-13T13:29:12.888Z,8.87
2023-01-13T13:32:09.013Z,8.75
2023-01-13T13:34:44.060Z,8.78
2023-01-13T13:37:30.185Z,8.75
2023-01-13T13:40:15.879Z,8.81
2023-01-13T13:43:13.410Z,8.83
2023-01-13T13:46:09.308Z,8.85
2023-01-13T13:48:35.756Z,8.89
2023-01-13T13:51:20.418Z,8.83
2023-01-13T13:53:47.745Z,8.83
2023-01-13T13:56:21.548Z,8.78
2023-01-13T13:58:49.380Z,8.91
2023-01-13T14:01:37.656Z,8.86
2023-01-13T14:04:21.729Z,8.90
2023-01-13T14:06:54.552Z,8.96
2023-01-13T14:09:22.249Z,8.99
2023-01-13T14:12:00.813Z,8.94
2023-01-13T14:14:28.223Z,8.93
2023-01-13T14:16:58.548Z,8.90
2023-01-13T14:19:35.916Z,9.09
2023-01-13T14:22:04.814Z,9.00
2023-01-13T14:24:32.689Z,9.15
2023-01-13T14:27:16.133Z,9.06
2023-01-13T14:29:43.122Z,9.09
2023-01-13T14:32:15.341Z,8.95
2023-01-13T14:34:41.729Z,8.93
2023-01-13T14:37:35.021Z,8.98
2023-01-13T14:40:01.708Z,8.92
2023-01-13T14:42:29.696Z,8.88
2023-01-13T14:44:56.436Z,8.84
2023-01-13T14:47:27.909Z,8.93
2023-01-13T14:50:03.103Z,8.83
2023-01-13T14:52:32.809Z,8.79
2023-01-13T14:55:09.123Z,8.82
2023-01-13T14:57:41.394Z,8.74
2023-01-13T15:00:13.964Z,8.76
2023-01-13T15:02:48.950Z,8.79
2023-01-13T15:05:28.953Z,8.69
2023-01-13T15:08:12.306Z,8.67
2023-01-13T15:11:00.519Z,8.69
2023-01-13T15:13:40.705Z,8.63
2023-01-13T15:16:16.917Z,8.61
2023-01-13T15:18:43.418Z,7.98
2023-01-13T15:21:10.443Z,7.22
2023-01-13T15:23:39.837Z,6.81
2023-01-13T15:26:18.387Z,6.69
2023-01-13T15:28:44.782Z,6.57
2023-01-13T15:31:11.324Z,6.58
2023-01-13T15:33:38.853Z,6.47
2023-01-13T15:36:11.562Z,6.50
2023-01-13T15:38:39.157Z,6.42
2023-01-13T15:41:05.676Z,6.36
2023-01-13T15:43:50.388Z,6.34
2023-01-13T15:46:38.743Z,6.26
2023-01-13T15:49:19.903Z,6.30
2023-01-13T15:51:47.654Z,6.20
2023-01-13T15:54:14.446Z,6.22
2023-01-13T15:56:42.060Z,6.16
2023-01-13T15:59:24.572Z,6.12
2023-01-13T16:01:51.121Z,6.15
2023-01-13T16:04:17.609Z,6.07
2023-01-13T16:06:44.636Z,6.05
2023-01-13T16:09:14.604Z,6.07
2023-01-13T16:11:41.014Z,6.12
2023-01-13T16:14:07.384Z,6.06
2023-01-13T16:16:33.845Z,5.98
2023-01-13T16:19:00.259Z,6.03
2023-01-13T16:21:26.650Z,6.07
2023-01-13T16:23:53.061Z,6.00
2023-01-13T16:26:22.388Z,6.03
2023-01-13T16:28:51.242Z,5.97
2023-01-13T16:31:22.156Z,5.93
2023-01-13T16:33:48.771Z,6.04
2023-01-13T16:36:17.491Z,6.22
2023-01-13T16:38:44.021Z,6.27
2023-01-13T16:41:10.476Z,6.36
2023-01-13T16:43:37.114Z,6.49
2023-01-13T16:46:17.472Z,6.64
2023-01-13T16:48:44.117Z,6.78
2023-01-13T16:51:10.507Z,6.77
2023-01-13T16:53:36.961Z,6.89
2023-01-13T16:56:03.335Z,6.83
2023-01-13T16:58:29.709Z,6.93
2023-01-13T17:00:56.194Z,6.98
2023-01-13T17:03:22.650Z,7.00
2023-01-13T17:05:49.051Z,7.01
2023-01-13T17:08:20.466Z,6.93
2023-01-13T17:10:47.622Z,6.95
2023-01-13T17:13:16.397Z,7.00
2023-01-13T17:15:43.417Z,7.19
2023-01-13T17:18:11.444Z,7.05
2023-01-13T17:20:37.800Z,7.03
2023-01-13T17:23:04.270Z,7.01
2023-01-13T17:25:30.671Z,7.02
2023-01-13T17:27:59.831Z,7.11
2023-01-13T17:30:26.312Z,6.97
2023-01-13T17:32:52.807Z,6.96
2023-01-13T17:35:24.455Z,6.94
2023-01-13T17:37:52.383Z,6.95
2023-01-13T17:40:18.853Z,7.01
2023-01-13T17:42:45.216Z,6.97
2023-01-13T17:45:12.424Z,6.99
2023-01-13T17:47:39.114Z,6.98
2023-01-13T17:50:06.054Z,7.02
2023-01-13T17:52:34.523Z,7.18
2023-01-13T17:55:01.059Z,7.09
2023-01-13T17:57:27.621Z,7.16
2023-01-13T17:59:54.027Z,7.18
2023-01-13T18:02:20.486Z,7.12
2023-01-13T18:04:46.921Z,7.23
2023-01-13T18:07:13.443Z,7.28
2023-01-13T18:09:39.844Z,7.30
2023-01-13T18:12:06.505Z,7.33
2023-01-13T18:14:32.922Z,7.43
2023-01-13T18:16:59.373Z,7.33
2023-01-13T18:19:44.438Z,7.24
2023-01-13T18:22:32.215Z,7.15
2023-01-13T18:25:17.341Z,7.08
2023-01-13T18:27:43.869Z,7.05
2023-01-13T18:30:12.250Z,7.11
2023-01-13T18:32:38.714Z,7.15
2023-01-13T18:35:10.147Z,7.10
2023-01-13T18:37:39.954Z,7.21
2023-01-13T18:40:07.866Z,7.18
2023-01-13T18:42:53.990Z,7.23
2023-01-13T18:45:26.376Z,7.29
2023-01-13T18:47:54.695Z,7.28
2023-01-13T18:50:22.349Z,7.24
2023-01-13T18:52:48.997Z,7.36
2023-01-13T18:55:15.700Z,7.37
2023-01-13T18:57:42.068Z,7.41
2023-01-13T19:00:11.632Z,7.54
2023-01-13T19:02:38.118Z,7.50
2023-01-13T19:05:05.111Z,7.49
2023-01-13T19:07:34.546Z,7.57
2023-01-13T19:10:00.960Z,7.47
2023-01-13T19:12:27.980Z,7.54
2023-01-13T19:14:55.526Z,7.57
2023-01-13T19:17:23.737Z,7.59
2023-01-13T19:19:53.477Z,7.51
2023-01-13T19:22:23.227Z,7.57
2023-01-13T19:24:50.543Z,7.52
2023-01-13T19:27:18.558Z,7.61
2023-01-13T19:29:52.335Z,7.56
2023-01-13T19:32:20.360Z,7.60
2023-01-13T19:34:47.801Z,7.54
2023-01-13T19:37:14.179Z,7.48
2023-01-13T19:39:40.835Z,7.52
2023-01-13T19:42:26.031Z,7.51
2023-01-13T19:45:11.133Z,7.51
2023-01-13T19:47:38.784Z,7.51
2023-01-13T19:50:09.153Z,7.52
2023-01-13T19:52:35.556Z,7.47
2023-01-13T19:55:02.161Z,7.48
2023-01-13T19:57:29.023Z,7.44
2023-01-13T19:59:55.370Z,7.51
2023-01-13T20:02:28.886Z,7.48
2023-01-13T20:04:57.216Z,7.44
2023-01-13T20:07:26.558Z,7.42
2023-01-13T20:09:53.812Z,7.38
2023-01-13T20:12:21.119Z,7.42
2023-01-13T20:14:48.031Z,7.49
2023-01-13T20:17:17.103Z,7.44
2023-01-13T20:19:43.758Z,7.44
2023-01-13T20:22:10.948Z,7.43
2023-01-13T20:24:37.513Z,7.42
2023-01-13T20:27:04.966Z,7.42
2023-01-13T20:29:31.892Z,7.42
2023-01-13T20:31:58.335Z,7.46
2023-01-13T20:34:25.796Z,7.39
2023-01-13T20:36:52.780Z,7.42
2023-01-13T20:39:27.143Z,7.37
2023-01-13T20:42:13.275Z,7.37
2023-01-13T20:44:40.255Z,7.34
2023-01-13T20:47:06.892Z,7.37
2023-01-13T20:49:36.051Z,7.37
2023-01-13T20:52:09.061Z,7.39
2023-01-13T20:54:36.937Z,7.33
2023-01-13T20:57:05.041Z,7.41
2023-01-13T20:59:31.497Z,7.37
2023-01-13T21:01:58.237Z,7.33
2023-01-13T21:04:24.673Z,7.29
2023-01-13T21:06:51.438Z,7.31
2023-01-13T21:09:18.127Z,7.31
2023-01-13T21:12:03.315Z,7.26
2023-01-13T21:14:48.065Z,7.27
2023-01-13T21:17:34.978Z,7.29
2023-01-13T21:20:04.083Z,7.29
2023-01-13T21:22:31.076Z,7.22
2023-01-13T21:24:58.426Z,7.26
2023-01-13T21:27:25.427Z,7.23
2023-01-13T21:29:51.847Z,7.25
2023-01-13T21:32:18.260Z,7.31
2023-01-13T21:34:44.793Z,7.37
2023-01-13T21:37:11.186Z,7.32
2023-01-13T21:39:38.721Z,7.34
2023-01-13T21:42:23.695Z,7.39
2023-01-13T21:45:08.605Z,7.48
2023-01-13T21:47:50.234Z,7.46
2023-01-13T21:50:19.673Z,7.48
2023-01-13T21:52:47.987Z,7.45
2023-01-13T21:55:25.229Z,7.41
2023-01-13T21:58:14.795Z,7.45
2023-01-13T22:00:43.257Z,7.38
2023-01-13T22:03:12.004Z,7.40
2023-01-13T22:05:38.834Z,7.44
2023-01-13T22:08:06.051Z,7.33
2023-01-13T22:10:32.531Z,7.23
2023-01-13T22:13:21.249Z,7.23
2023-01-13T22:15:47.933Z,7.22
2023-01-13T22:18:14.311Z,7.17
2023-01-13T22:20:42.055Z,7.15
2023-01-13T22:23:08.558Z,7.13
2023-01-13T22:25:34.934Z,7.05
2023-01-13T22:28:05.913Z,7.08
2023-01-13T22:30:33.132Z,7.02
2023-01-13T22:32:59.882Z,6.95
2023-01-13T22:35:26.306Z,6.99
2023-01-13T22:37:52.679Z,7.03
2023-01-13T22:40:19.046Z,7.07
2023-01-13T22:42:45.628Z,7.06
2023-01-13T22:45:14.303Z,6.97
2023-01-13T22:47:41.153Z,6.92
2023-01-13T22:50:08.990Z,6.88
2023-01-13T22:52:35.662Z,6.93
2023-01-13T22:55:02.112Z,6.91
2023-01-13T22:57:46.725Z,6.94
2023-01-13T23:00:14.851Z,7.12
2023-01-13T23:02:41.330Z,7.07
2023-01-13T23:05:08.121Z,7.07
2023-01-13T23:07:35.462Z,7.08
2023-01-13T23:10:02.483Z,7.17
2023-01-13T23:12:28.910Z,7.15
2023-01-13T23:14:55.286Z,7.16
2023-01-13T23:17:21.667Z,7.22
2023-01-13T23:19:48.015Z,7.27
2023-01-13T23:22:14.399Z,7.23
2023-01-13T23:24:40.848Z,7.22
2023-01-13T23:27:07.301Z,7.13
2023-01-13T23:29:33.682Z,7.14
2023-01-13T23:32:00.080Z,7.13
2023-01-13T23:34:26.515Z,7.11
2023-01-13T23:36:52.888Z,7.13
2023-01-13T23:39:19.310Z,7.00
2023-01-13T23:41:45.758Z,7.05
2023-01-13T23:44:12.202Z,6.98
2023-01-13T23:46:38.599Z,7.02
2023-01-13T23:49:05.017Z,7.05
2023-01-13T23:51:31.941Z,6.99
2023-01-13T23:53:59.335Z,6.93
2023-01-13T23:56:28.868Z,6.93
2023-01-13T23:58:56.057Z,6.97
